createdAt,value
2023-03-02T00:00:39.085Z,93945.28
2023-03-02T00:03:06.386Z,93941.63
2023-03-02T00:05:34.766Z,93950.44
2023-03-02T00:08:02.565Z,93948.38
2023-03-02T00:10:29.422Z,93945.03
2023-03-02T00:12:56.168Z,93949.84
2023-03-02T00:15:22.954Z,93950.19
2023-03-02T00:17:49.815Z,93947.09
2023-03-02T00:20:16.941Z,93942.81
2023-03-02T00:22:45.068Z,93945.72
2023-03-02T00:25:13.718Z,93938.31
2023-03-02T00:27:40.872Z,93931.84
2023-03-02T00:30:10.179Z,93930.59
2023-03-02T00:32:37.757Z,93927.38
2023-03-02T00:35:05.349Z,93924.81
2023-03-02T00:40:17.097Z,93918.47
2023-03-02T00:42:43.855Z,93912.56
2023-03-02T00:45:11.134Z,93918.56
2023-03-02T00:47:38.600Z,93902.38
2023-03-02T00:50:06.354Z,93899.13
2023-03-02T00:52:33.739Z,93897.50
2023-03-02T00:55:00.431Z,93899.28
2023-03-02T00:57:27.512Z,93895.66
2023-03-02T00:59:55.558Z,93892.78
2023-03-02T01:02:31.710Z,93890.28
2023-03-02T01:04:58.664Z,93892.59
2023-03-02T01:07:28.347Z,93889.94
2023-03-02T01:09:55.378Z,93888.06
2023-03-02T01:12:22.958Z,93882.59
2023-03-02T01:14:50.939Z,93877.00
2023-03-02T01:17:18.880Z,93877.94
2023-03-02T01:19:45.818Z,93876.56
2023-03-02T01:22:12.696Z,93883.97
2023-03-02T01:24:39.591Z,93880.63
2023-03-02T01:27:06.465Z,93878.75
2023-03-02T01:29:33.716Z,93885.22
2023-03-02T01:32:00.715Z,93880.63
2023-03-02T01:34:27.715Z,93879.94
2023-03-02T01:36:54.549Z,93884.66
2023-03-02T01:39:22.583Z,93884.47
2023-03-02T01:41:51.855Z,93872.53
2023-03-02T01:44:37.390Z,93876.44
2023-03-02T01:47:18.727Z,93869.25
2023-03-02T01:50:02.256Z,93880.09
2023-03-02T01:52:34.629Z,93874.91
2023-03-02T01:55:05.141Z,93877.34
2023-03-02T01:57:43.625Z,93869.06
2023-03-02T02:00:19.509Z,93861.19
2023-03-02T02:02:48.055Z,93866.28
2023-03-02T02:05:19.338Z,93861.19
2023-03-02T02:07:46.717Z,93870.53
2023-03-02T02:10:13.556Z,93865.09
2023-03-02T02:12:40.862Z,93867.09
2023-03-02T02:15:08.308Z,93865.63
2023-03-02T02:17:35.569Z,93867.88
2023-03-02T02:20:02.318Z,93867.31
2023-03-02T02:22:58.249Z,93863.81
2023-03-02T02:25:30.860Z,93866.88
2023-03-02T02:27:57.742Z,93864.28
2023-03-02T02:30:25.641Z,93872.66
2023-03-02T02:32:54.856Z,93878.72
2023-03-02T02:35:24.739Z,93867.75
2023-03-02T02:37:54.760Z,93872.41
2023-03-02T02:40:40.794Z,93866.50
2023-03-02T02:43:13.207Z,93867.47
2023-03-02T02:45:40.522Z,93867.25
2023-03-02T02:48:13.950Z,93867.91
2023-03-02T02:50:40.806Z,93859.91
2023-03-02T02:53:13.634Z,93854.13
2023-03-02T02:55:41.713Z,93863.34
2023-03-02T02:58:40.491Z,93855.81
2023-03-02T03:01:07.510Z,93855.81
2023-03-02T03:03:37.324Z,93869.50
2023-03-02T03:06:14.545Z,93861.41
2023-03-02T03:08:41.312Z,93861.78
2023-03-02T03:11:11.236Z,93855.56
2023-03-02T03:13:39.023Z,93859.41
2023-03-02T03:16:07.945Z,93854.09
2023-03-02T03:18:34.684Z,93856.88
2023-03-02T03:21:01.480Z,93858.88
2023-03-02T03:23:28.276Z,93853.78
2023-03-02T03:25:55.164Z,93853.78
2023-03-02T03:28:22.113Z,93851.09
2023-03-02T03:30:49.357Z,93857.84
2023-03-02T03:33:16.353Z,93852.59
2023-03-02T03:35:43.275Z,93861.03
2023-03-02T03:38:10.120Z,93861.97
2023-03-02T03:40:36.945Z,93861.97
2023-03-02T03:43:04.531Z,93854.59
2023-03-02T03:45:32.042Z,93858.31
2023-03-02T03:47:59.031Z,93852.97
2023-03-02T03:50:25.955Z,93852.84
2023-03-02T03:52:52.720Z,93857.13
2023-03-02T03:55:28.463Z,93853.66
2023-03-02T03:57:55.750Z,93862.13
2023-03-02T04:00:23.214Z,93852.84
2023-03-02T04:02:56.389Z,93854.59
2023-03-02T04:05:23.931Z,93858.19
2023-03-02T04:07:53.348Z,93853.34
2023-03-02T04:10:21.015Z,93858.56
2023-03-02T04:12:48.959Z,93853.97
2023-03-02T04:15:16.937Z,93857.31
2023-03-02T04:17:45.804Z,93858.91
2023-03-02T04:20:16.726Z,93861.34
2023-03-02T04:22:48.059Z,93861.25
2023-03-02T04:25:17.449Z,93860.31
2023-03-02T04:27:44.304Z,93853.09
2023-03-02T04:30:11.795Z,93851.47
2023-03-02T04:32:38.791Z,93857.00
2023-03-02T04:35:06.178Z,93854.56
2023-03-02T04:37:33.000Z,93864.66
2023-03-02T04:39:59.865Z,93864.66
2023-03-02T04:42:26.708Z,93868.56
2023-03-02T04:44:53.426Z,93867.63
2023-03-02T04:47:20.115Z,93866.16
2023-03-02T04:49:46.876Z,93868.94
2023-03-02T04:52:13.570Z,93872.97
2023-03-02T04:54:40.474Z,93866.72
2023-03-02T04:57:08.532Z,93879.13
2023-03-02T04:59:35.380Z,93874.03
2023-03-02T05:02:02.182Z,93873.03
2023-03-02T05:04:29.817Z,93872.31
2023-03-02T05:06:57.375Z,93877.06
2023-03-02T05:09:27.555Z,93875.53
2023-03-02T05:11:55.623Z,93880.91
2023-03-02T05:14:22.611Z,93874.53
2023-03-02T05:16:49.522Z,93873.50
2023-03-02T05:19:16.671Z,93885.41
2023-03-02T05:21:44.028Z,93879.06
2023-03-02T05:24:13.597Z,93877.06
2023-03-02T05:26:40.767Z,93881.25
2023-03-02T05:29:07.753Z,93883.69
2023-03-02T05:31:42.706Z,93887.59
2023-03-02T05:34:11.968Z,93885.47
2023-03-02T05:36:39.159Z,93887.78
2023-03-02T05:39:07.196Z,93894.59
2023-03-02T05:41:34.034Z,93889.72
2023-03-02T05:44:01.178Z,93890.28
2023-03-02T05:46:28.011Z,93894.06
2023-03-02T05:48:54.984Z,93891.25
2023-03-02T05:51:21.742Z,93894.72
2023-03-02T05:53:48.537Z,93888.28
2023-03-02T05:56:15.338Z,93882.25
2023-03-02T05:58:42.130Z,93884.69
2023-03-02T06:01:13.131Z,93888.72
2023-03-02T06:03:42.524Z,93885.22
2023-03-02T06:06:14.048Z,93895.44
2023-03-02T06:08:41.920Z,93889.63
2023-03-02T06:11:09.042Z,93891.25
2023-03-02T06:13:37.394Z,93897.97
2023-03-02T06:16:05.026Z,93898.63
2023-03-02T06:18:31.816Z,93902.59
2023-03-02T06:20:58.990Z,93893.44
2023-03-02T06:23:25.797Z,93905.75
2023-03-02T06:25:52.622Z,93906.81
2023-03-02T06:28:20.407Z,93912.50
2023-03-02T06:30:52.244Z,93912.41
2023-03-02T06:33:21.447Z,93920.84
2023-03-02T06:35:49.297Z,93922.78
2023-03-02T06:38:16.714Z,93913.72
2023-03-02T06:40:43.919Z,93912.78
2023-03-02T06:43:10.777Z,93914.25
2023-03-02T06:45:38.035Z,93907.84
2023-03-02T06:48:05.132Z,93914.31
2023-03-02T06:50:32.135Z,93916.25
2023-03-02T06:52:59.350Z,93913.44
2023-03-02T06:55:26.174Z,93916.09
2023-03-02T06:57:52.939Z,93926.56
2023-03-02T07:00:26.243Z,93916.09
2023-03-02T07:02:53.403Z,93916.81
2023-03-02T07:05:20.578Z,93909.19
2023-03-02T07:07:47.333Z,93916.31
2023-03-02T07:10:14.446Z,93921.94
2023-03-02T07:12:42.133Z,93912.94
2023-03-02T07:15:12.237Z,93909.66
2023-03-02T07:17:39.786Z,93913.94
2023-03-02T07:20:07.023Z,93915.19
2023-03-02T07:22:33.896Z,93908.41
2023-03-02T07:25:00.854Z,93911.53
2023-03-02T07:27:27.784Z,93912.94
2023-03-02T07:29:54.569Z,93907.59
2023-03-02T07:32:21.474Z,93911.38
2023-03-02T07:34:48.321Z,93922.13
2023-03-02T07:37:15.068Z,93918.81
2023-03-02T07:39:41.909Z,93915.44
2023-03-02T07:42:11.429Z,93919.09
2023-03-02T07:44:40.859Z,93923.38
2023-03-02T07:47:07.744Z,93921.19
2023-03-02T07:49:35.550Z,93923.13
2023-03-02T07:52:03.375Z,93921.03
2023-03-02T07:54:30.529Z,93925.59
2023-03-02T07:56:58.105Z,93923.63
2023-03-02T07:59:25.253Z,93920.13
2023-03-02T08:01:52.115Z,93921.88
2023-03-02T08:04:18.903Z,93918.50
2023-03-02T08:06:45.683Z,93913.72
2023-03-02T08:09:14.123Z,93919.31
2023-03-02T08:11:42.617Z,93911.75
2023-03-02T08:14:09.378Z,93909.72
2023-03-02T08:16:36.227Z,93910.00
2023-03-02T08:19:03.195Z,93910.78
2023-03-02T08:21:30.572Z,93910.44
2023-03-02T08:23:57.972Z,93903.84
2023-03-02T08:26:24.707Z,93906.41
2023-03-02T08:28:51.633Z,93903.47
2023-03-02T08:31:18.732Z,93902.25
2023-03-02T08:33:46.225Z,93902.03
2023-03-02T08:36:16.350Z,93908.19
2023-03-02T08:38:43.644Z,93901.88
2023-03-02T08:41:13.364Z,93904.22
2023-03-02T08:43:40.303Z,93905.69
2023-03-02T08:46:07.272Z,93891.69
2023-03-02T08:48:34.419Z,93898.19
2023-03-02T08:51:08.371Z,93900.88
2023-03-02T08:53:38.000Z,93896.88
2023-03-02T08:56:07.380Z,93897.25
2023-03-02T08:58:34.144Z,93896.59
2023-03-02T09:01:00.968Z,93889.06
2023-03-02T09:03:27.797Z,93894.06
2023-03-02T09:05:54.765Z,93887.31
2023-03-02T09:08:21.551Z,93885.88
2023-03-02T09:10:48.354Z,93887.84
2023-03-02T09:13:15.106Z,93887.31
2023-03-02T09:15:41.960Z,93897.00
2023-03-02T09:18:08.850Z,93883.28
2023-03-02T09:20:35.742Z,93882.34
2023-03-02T09:23:02.524Z,93877.22
2023-03-02T09:25:29.585Z,93873.91
2023-03-02T09:27:56.406Z,93878.44
2023-03-02T09:30:23.290Z,93878.59
2023-03-02T09:32:50.286Z,93870.66
2023-03-02T09:35:17.123Z,93878.84
2023-03-02T09:37:44.653Z,93869.44
2023-03-02T09:40:20.950Z,93869.84
2023-03-02T09:42:56.751Z,93861.53
2023-03-02T09:45:48.243Z,93859.91
2023-03-02T09:48:25.482Z,93866.34
2023-03-02T09:51:09.848Z,93865.81
2023-03-02T09:54:01.019Z,93857.47
2023-03-02T09:56:27.825Z,93868.78
2023-03-02T09:59:08.995Z,93863.75
2023-03-02T10:01:42.038Z,93858.22
2023-03-02T10:04:18.151Z,93853.00
2023-03-02T10:06:45.857Z,93850.41
2023-03-02T10:09:12.590Z,93859.97
2023-03-02T10:11:59.616Z,93858.59
2023-03-02T10:14:31.055Z,93864.63
2023-03-02T10:17:27.987Z,93862.31
2023-03-02T10:20:01.659Z,93860.44
2023-03-02T10:22:48.391Z,93872.25
2023-03-02T10:25:30.883Z,93872.03
2023-03-02T10:28:02.424Z,93876.31
2023-03-02T10:30:32.829Z,93873.03
2023-03-02T10:33:20.422Z,93874.66
2023-03-02T10:35:49.867Z,93871.28
2023-03-02T10:38:19.341Z,93871.03
2023-03-02T10:40:48.270Z,93870.84
2023-03-02T10:43:30.156Z,93872.59
2023-03-02T10:46:08.758Z,93868.84
2023-03-02T10:48:59.783Z,93864.53
2023-03-02T10:51:29.118Z,93865.47
2023-03-02T10:54:14.472Z,93865.31
2023-03-02T10:56:49.776Z,93856.06
2023-03-02T10:59:31.069Z,93854.81
2023-03-02T11:02:00.514Z,93854.44
2023-03-02T11:04:27.420Z,93850.94
2023-03-02T11:06:54.709Z,93844.03
2023-03-02T11:09:21.708Z,93844.41
2023-03-02T11:11:52.111Z,93842.41
2023-03-02T11:14:18.849Z,93834.94
2023-03-02T11:16:46.028Z,93832.38
2023-03-02T11:19:19.759Z,93836.69
2023-03-02T11:22:00.750Z,93837.22
2023-03-02T11:24:39.253Z,93830.06
2023-03-02T11:27:27.252Z,93835.31
2023-03-02T11:30:01.216Z,93828.00
2023-03-02T11:33:07.661Z,93823.75
2023-03-02T11:35:45.627Z,93825.06
2023-03-02T11:38:12.441Z,93815.75
2023-03-02T11:40:48.127Z,93815.53
2023-03-02T11:43:15.309Z,93817.97
2023-03-02T11:45:47.193Z,93809.88
2023-03-02T11:48:30.779Z,93808.91
2023-03-02T11:50:58.616Z,93809.72
2023-03-02T11:53:46.790Z,93810.69
2023-03-02T11:56:13.549Z,93809.38
2023-03-02T11:58:42.891Z,93811.09
2023-03-02T12:01:18.120Z,93816.72
2023-03-02T12:03:45.728Z,93811.53
2023-03-02T12:06:15.426Z,93817.28
2023-03-02T12:08:46.841Z,93813.91
2023-03-02T12:11:16.715Z,93807.91
2023-03-02T12:14:23.560Z,93821.28
2023-03-02T12:16:51.035Z,93816.63
2023-03-02T12:19:17.786Z,93814.69
2023-03-02T12:22:00.857Z,93815.31
2023-03-02T12:24:33.627Z,93814.53
2023-03-02T12:27:07.964Z,93810.28
2023-03-02T12:30:01.511Z,93816.31
2023-03-02T12:32:30.939Z,93812.72
2023-03-02T12:35:12.487Z,93812.66
2023-03-02T12:37:47.128Z,93807.72
2023-03-02T12:40:34.003Z,93811.16
2023-03-02T12:43:31.808Z,93813.16
2023-03-02T12:46:23.582Z,93813.09
2023-03-02T12:49:18.554Z,93807.09
2023-03-02T12:51:48.690Z,93806.13
2023-03-02T12:54:18.049Z,93802.97
2023-03-02T12:56:45.216Z,93808.91
2023-03-02T12:59:27.094Z,93803.72
2023-03-02T13:02:15.820Z,93802.41
2023-03-02T13:04:42.830Z,93799.47
2023-03-02T13:07:22.960Z,93795.50
2023-03-02T13:09:56.528Z,93796.63
2023-03-02T13:12:26.010Z,93790.53
2023-03-02T13:14:55.599Z,93784.75
2023-03-02T13:17:30.941Z,93787.09
2023-03-02T13:20:03.804Z,93785.78
2023-03-02T13:22:30.766Z,93779.28
2023-03-02T13:25:00.431Z,93776.53
2023-03-02T13:27:29.188Z,93779.56
2023-03-02T13:29:56.609Z,93778.03
2023-03-02T13:32:23.420Z,93772.84
2023-03-02T13:34:53.542Z,93764.31
2023-03-02T13:37:23.775Z,93767.72
2023-03-02T13:39:59.120Z,93766.81
2023-03-02T13:42:29.671Z,93758.88
2023-03-02T13:44:56.638Z,93757.56
2023-03-02T13:47:25.008Z,93751.78
2023-03-02T13:49:52.005Z,93757.41
2023-03-02T13:52:31.465Z,93755.22
2023-03-02T13:54:58.805Z,93758.44
2023-03-02T13:57:30.790Z,93757.72
2023-03-02T13:59:59.276Z,93758.72
2023-03-02T14:02:28.618Z,93751.84
2023-03-02T14:04:56.590Z,93752.28
2023-03-02T14:07:23.912Z,93753.78
2023-03-02T14:09:50.936Z,93752.53
2023-03-02T14:12:26.458Z,93760.53
2023-03-02T14:14:56.442Z,93755.72
2023-03-02T14:17:25.418Z,93747.56
2023-03-02T14:19:55.413Z,93748.94
2023-03-02T14:22:23.700Z,93740.63
2023-03-02T14:24:50.995Z,93750.03
2023-03-02T14:27:18.681Z,93746.94
2023-03-02T14:29:46.973Z,93746.28
2023-03-02T14:32:15.744Z,93747.75
2023-03-02T14:34:42.704Z,93745.22
2023-03-02T14:37:21.155Z,93745.09
2023-03-02T14:39:54.287Z,93745.22
2023-03-02T14:42:23.514Z,93738.50
2023-03-02T14:44:52.058Z,93750.72
2023-03-02T14:47:19.966Z,93741.59
2023-03-02T14:49:47.149Z,93747.47
2023-03-02T14:52:33.757Z,93737.66
2023-03-02T14:55:04.044Z,93748.44
2023-03-02T14:57:37.166Z,93754.06
2023-03-02T15:00:05.440Z,93743.72
2023-03-02T15:02:32.698Z,93750.44
2023-03-02T15:04:59.837Z,93753.78
2023-03-02T15:07:27.848Z,93754.31
2023-03-02T15:09:56.747Z,93758.59
2023-03-02T15:12:24.034Z,93752.69
2023-03-02T15:14:51.351Z,93756.03
2023-03-02T15:17:19.080Z,93762.97
2023-03-02T15:19:46.143Z,93752.47
2023-03-02T15:22:13.314Z,93755.38
2023-03-02T15:24:40.293Z,93754.53
2023-03-02T15:27:07.227Z,93759.84
2023-03-02T15:29:34.132Z,93766.81
2023-03-02T15:32:01.038Z,93760.19
2023-03-02T15:34:27.853Z,93758.03
2023-03-02T15:36:54.585Z,93763.13
2023-03-02T15:39:21.426Z,93758.41
2023-03-02T15:41:48.213Z,93754.91
2023-03-02T15:44:21.918Z,93760.97
2023-03-02T15:46:56.239Z,93767.91
2023-03-02T15:49:24.922Z,93759.84
2023-03-02T15:51:52.233Z,93769.59
2023-03-02T15:54:19.196Z,93776.75
2023-03-02T15:56:49.627Z,93778.16
2023-03-02T15:59:16.515Z,93771.41
2023-03-02T16:01:43.298Z,93770.34
2023-03-02T16:04:10.254Z,93771.59
2023-03-02T16:06:37.083Z,93768.78
2023-03-02T16:09:04.176Z,93772.56
2023-03-02T16:11:30.952Z,93771.38
2023-03-02T16:13:58.151Z,93775.00
2023-03-02T16:16:24.993Z,93776.34
2023-03-02T16:18:56.945Z,93780.16
2023-03-02T16:21:25.085Z,93779.59
2023-03-02T16:23:52.746Z,93781.88
2023-03-02T16:26:21.378Z,93782.16
2023-03-02T16:28:48.491Z,93784.75
2023-03-02T16:31:18.539Z,93784.25
2023-03-02T16:33:46.156Z,93779.22
2023-03-02T16:36:14.438Z,93778.03
2023-03-02T16:38:41.584Z,93784.47
2023-03-02T16:41:17.204Z,93783.41
2023-03-02T16:43:50.225Z,93778.31
2023-03-02T16:46:17.371Z,93781.13
2023-03-02T16:48:45.020Z,93792.44
2023-03-02T16:51:12.149Z,93786.28
2023-03-02T16:53:40.808Z,93786.28
2023-03-02T16:56:08.753Z,93793.09
2023-03-02T16:58:38.316Z,93790.28
2023-03-02T17:01:09.687Z,93789.47
2023-03-02T17:03:36.750Z,93799.34
2023-03-02T17:06:05.634Z,93797.94
2023-03-02T17:08:32.295Z,93794.50
2023-03-02T17:10:58.967Z,93799.28
2023-03-02T17:13:25.877Z,93808.47
2023-03-02T17:15:52.730Z,93812.00
2023-03-02T17:18:19.484Z,93807.97
2023-03-02T17:20:46.258Z,93806.78
2023-03-02T17:23:14.168Z,93805.22
2023-03-02T17:25:40.901Z,93808.38
2023-03-02T17:28:07.741Z,93804.19
2023-03-02T17:30:34.574Z,93805.63
2023-03-02T17:33:01.287Z,93801.34
2023-03-02T17:35:28.066Z,93809.47
2023-03-02T17:37:54.861Z,93805.28
2023-03-02T17:40:21.730Z,93801.00
2023-03-02T17:42:48.550Z,93795.94
2023-03-02T17:45:20.550Z,93808.28
2023-03-02T17:47:49.289Z,93813.00
2023-03-02T17:50:16.142Z,93797.88
2023-03-02T17:52:43.361Z,93799.91
2023-03-02T17:55:11.270Z,93805.81
2023-03-02T17:57:38.398Z,93801.66
2023-03-02T18:00:08.437Z,93798.88
2023-03-02T18:02:35.616Z,93791.47
2023-03-02T18:05:03.268Z,93791.09
2023-03-02T18:07:30.031Z,93790.06
2023-03-02T18:09:56.770Z,93798.63
2023-03-02T18:12:23.526Z,93803.59
2023-03-02T18:14:50.355Z,93796.19
2023-03-02T18:17:20.008Z,93792.50
2023-03-02T18:19:48.096Z,93794.09
2023-03-02T18:22:15.381Z,93792.50
2023-03-02T18:24:42.331Z,93791.44
2023-03-02T18:27:09.056Z,93789.25
2023-03-02T18:29:35.893Z,93793.44
2023-03-02T18:32:02.736Z,93794.25
2023-03-02T18:34:29.506Z,93790.31
2023-03-02T18:36:56.349Z,93789.88
2023-03-02T18:39:23.174Z,93795.13
2023-03-02T18:41:50.040Z,93797.66
2023-03-02T18:44:17.793Z,93797.06
2023-03-02T18:46:44.727Z,93795.69
2023-03-02T18:49:11.525Z,93784.47
2023-03-02T18:51:38.235Z,93783.19
2023-03-02T18:54:05.070Z,93788.28
2023-03-02T18:56:31.882Z,93790.94
2023-03-02T18:58:58.739Z,93791.09
2023-03-02T19:01:25.555Z,93797.09
2023-03-02T19:03:54.047Z,93791.91
2023-03-02T19:06:20.720Z,93796.19
2023-03-02T19:08:48.256Z,93792.81
2023-03-02T19:11:15.231Z,93789.22
2023-03-02T19:13:42.073Z,93787.94
2023-03-02T19:16:08.963Z,93787.03
2023-03-02T19:18:35.776Z,93788.66
2023-03-02T19:21:04.937Z,93783.56
2023-03-02T19:23:51.221Z,93781.13
2023-03-02T19:26:18.108Z,93785.56
2023-03-02T19:28:44.912Z,93786.22
2023-03-02T19:31:12.376Z,93789.94
2023-03-02T19:33:40.262Z,93793.19
2023-03-02T19:36:07.648Z,93789.47
2023-03-02T19:38:37.916Z,93788.94
2023-03-02T19:41:05.018Z,93788.69
2023-03-02T19:43:31.934Z,93792.03
2023-03-02T19:45:58.811Z,93799.66
2023-03-02T19:48:25.645Z,93800.72
2023-03-02T19:50:53.132Z,93808.38
2023-03-02T19:53:19.880Z,93804.88
2023-03-02T19:55:46.678Z,93807.56
2023-03-02T19:58:20.504Z,93808.59
2023-03-02T20:00:47.407Z,93803.84
2023-03-02T20:03:14.254Z,93810.47
2023-03-02T20:05:41.082Z,93813.22
2023-03-02T20:08:08.167Z,93812.41
2023-03-02T20:10:41.410Z,93806.53
2023-03-02T20:13:09.086Z,93812.41
2023-03-02T20:15:38.525Z,93809.88
2023-03-02T20:18:07.625Z,93799.59
2023-03-02T20:20:34.704Z,93806.41
2023-03-02T20:23:01.564Z,93812.53
2023-03-02T20:25:28.949Z,93811.84
2023-03-02T20:27:56.797Z,93805.72
2023-03-02T20:30:31.592Z,93803.03
2023-03-02T20:32:58.915Z,93804.56
2023-03-02T20:35:26.653Z,93799.00
2023-03-02T20:37:54.735Z,93793.22
2023-03-02T20:40:22.617Z,93789.97
2023-03-02T20:42:49.682Z,93800.28
2023-03-02T20:45:16.640Z,93791.59
2023-03-02T20:47:44.485Z,93794.94
2023-03-02T20:50:15.294Z,93792.28
2023-03-02T20:52:42.371Z,93792.75
2023-03-02T20:55:10.278Z,93781.19
2023-03-02T20:57:37.045Z,93782.78
2023-03-02T21:00:07.353Z,93780.25
2023-03-02T21:02:34.392Z,93781.88
2023-03-02T21:05:01.223Z,93786.50
2023-03-02T21:07:28.038Z,93785.94
2023-03-02T21:09:54.803Z,93786.66
2023-03-02T21:12:21.763Z,93784.88
2023-03-02T21:14:48.708Z,93782.84
2023-03-02T21:17:15.451Z,93777.97
2023-03-02T21:19:42.144Z,93770.47
2023-03-02T21:22:09.048Z,93757.19
2023-03-02T21:24:35.852Z,93767.94
2023-03-02T21:27:02.896Z,93768.06
2023-03-02T21:29:29.832Z,93773.03
2023-03-02T21:31:56.883Z,93765.63
2023-03-02T21:34:23.806Z,93775.69
2023-03-02T21:36:53.646Z,93767.69
2023-03-02T21:39:23.613Z,93765.97
2023-03-02T21:41:51.156Z,93765.16
2023-03-02T21:44:18.544Z,93764.44
2023-03-02T21:46:45.571Z,93766.53
2023-03-02T21:49:16.271Z,93773.69
2023-03-02T21:51:43.278Z,93770.78
2023-03-02T21:54:10.133Z,93767.78
2023-03-02T21:56:37.236Z,93762.50
2023-03-02T21:59:04.625Z,93761.06
2023-03-02T22:01:33.070Z,93761.41
2023-03-02T22:04:00.651Z,93758.84
2023-03-02T22:06:30.473Z,93752.84
2023-03-02T22:08:57.907Z,93746.63
2023-03-02T22:11:30.580Z,93747.44
2023-03-02T22:13:59.599Z,93746.63
2023-03-02T22:16:27.401Z,93738.72
2023-03-02T22:18:59.158Z,93737.97
2023-03-02T22:21:39.197Z,93744.00
2023-03-02T22:24:13.492Z,93739.81
2023-03-02T22:26:49.898Z,93735.66
2023-03-02T22:29:21.754Z,93729.91
2023-03-02T22:31:51.982Z,93728.28
2023-03-02T22:34:23.539Z,93724.94
2023-03-02T22:36:50.666Z,93721.56
2023-03-02T22:39:29.147Z,93718.00
2023-03-02T22:42:20.918Z,93716.63
2023-03-02T22:44:53.237Z,93719.19
2023-03-02T22:47:20.732Z,93726.09
2023-03-02T22:49:48.234Z,93720.22
2023-03-02T22:52:17.793Z,93711.56
2023-03-02T22:54:45.657Z,93718.50
2023-03-02T22:57:34.039Z,93710.06
2023-03-02T23:00:30.155Z,93708.31
2023-03-02T23:02:57.593Z,93704.97
2023-03-02T23:05:30.567Z,93702.31
2023-03-02T23:08:17.082Z,93695.63
2023-03-02T23:10:44.905Z,93698.31
2023-03-02T23:13:14.651Z,93701.75
2023-03-02T23:15:44.221Z,93697.50
2023-03-02T23:18:28.530Z,93700.13
2023-03-02T23:20:56.257Z,93695.31
2023-03-02T23:23:24.453Z,93707.44
2023-03-02T23:25:51.267Z,93691.97
2023-03-02T23:28:17.992Z,93685.88
2023-03-02T23:30:45.485Z,93688.59
2023-03-02T23:33:12.234Z,93681.09
2023-03-02T23:35:39.951Z,93682.16
2023-03-02T23:38:06.711Z,93679.72
2023-03-02T23:40:33.893Z,93681.56
2023-03-02T23:43:00.934Z,93676.72
2023-03-02T23:45:27.779Z,93673.94
2023-03-02T23:47:54.559Z,93678.81
2023-03-02T23:50:21.382Z,93669.09
2023-03-02T23:52:49.310Z,93675.69
2023-03-02T23:55:16.182Z,93676.63
2023-03-02T23:57:42.992Z,93681.25
